SU1404 / VP-BMO 7700 Squawk Report (26th of March, 2020)

Aircraft B738 Reg No. VP-BMO Age 2 years old
Model 737 Jet engines 2 First flight 06-07-17
Registered 01-08-17 Rollout N/A Delivered 01-08-17
Construction No. 41233 Line No. 6491 Series 800
ADSHEX 42423D Airline name Aeroflot Russian Airlines Owner N/A
Airfield based Moscow-Sheremetyevo~Moscow~RA First tracked N/A

Flight history for VP-BMO

Time Lat Lon Altitude Heading Speed Vertical Rate
2020-03-26 14:39:58 GMT 56.622093 60.914581 5,250 78 272 -576
2020-03-26 14:39:49 GMT 56.620148 60.896275 5,325 79 276 -512
2020-03-26 14:39:46 GMT 56.619370 60.889149 5,350 79 277 -704
2020-03-26 14:39:36 GMT 56.616737 60.863991 5,500 79 281 -1216
2020-03-26 14:39:25 GMT 56.614319 60.840691 5,700 79 283 -1024
2020-03-26 14:39:14 GMT 56.611805 60.816856 5,900 79 285 -1216
2020-03-26 14:39:05 GMT 56.609207 60.792587 6,150 78 284 -1728
2020-03-26 14:38:48 GMT 56.605240 60.756432 6,525 78 282 -1344
2020-03-26 14:38:37 GMT 56.602448 60.730030 6,675 79 282 -1472
2020-03-26 14:38:33 GMT 56.601330 60.719311 6,875 78 282 -1344
2020-03-26 14:38:23 GMT 56.598816 60.696362 7,100 78 284 -1216
2020-03-26 14:38:13 GMT 56.596115 60.671375 7,350 78 284 -1408
2020-03-26 14:38:01 GMT 56.593369 60.645508 7,550 79 287 -1216
2020-03-26 14:37:49 GMT 56.590389 60.617149 7,825 79 287 -1280
2020-03-26 14:37:41 GMT 56.588528 60.598953 8,000 79 287 -1344
2020-03-26 14:37:30 GMT 56.585861 60.573036 8,225 79 287 -1152
2020-03-26 14:37:20 GMT 56.583435 60.549648 8,425 79 288 -960
2020-03-26 14:37:11 GMT 56.580849 60.525997 8,600 78 289 -1152
2020-03-26 14:37:00 GMT 56.578053 60.501106 8,775 78 291 -1024
2020-03-26 14:36:50 GMT 56.575260 60.476131 8,950 78 293 -1024
2020-03-26 14:36:40 GMT 56.572403 60.450939 9,125 78 296 -1024
2020-03-26 14:36:29 GMT 56.569534 60.425663 9,300 78 299 -1024
2020-03-26 14:36:19 GMT 56.566727 60.400749 9,475 78 302 -1152
2020-03-26 14:36:09 GMT 56.563568 60.372372 9,650 78 305 -832
2020-03-26 14:35:57 GMT 56.560547 60.345737 9,800 78 310 -768
2020-03-26 14:35:47 GMT 56.557663 60.319851 9,925 78 316 -512
2020-03-26 14:35:37 GMT 56.554596 60.292385 9,975 78 325 -384
2020-03-26 14:35:25 GMT 56.551392 60.263924 10,050 78 333 -448
2020-03-26 14:35:15 GMT 56.548306 60.236492 10,100 78 342 -256
2020-03-26 14:35:06 GMT 56.545029 60.206657 10,175 78 351 -448
2020-03-26 14:34:55 GMT 56.541733 60.176945 10,250 78 361 -320
2020-03-26 14:34:45 GMT 56.538254 60.145237 10,300 78 371 -384
2020-03-26 14:34:34 GMT 56.534775 60.113110 10,375 78 382 -768
2020-03-26 14:34:23 GMT 56.531178 60.080280 10,650 78 384 -2432
2020-03-26 14:34:13 GMT 56.527725 60.048691 11,075 78 384 -2368
2020-03-26 14:34:03 GMT 56.524246 60.016563 11,475 78 383 -2304
2020-03-26 14:33:53 GMT 56.520630 59.984852 11,875 78 385 -2112
2020-03-26 14:33:42 GMT 56.516651 59.950588 12,225 78 386 -2240
2020-03-26 14:33:32 GMT 56.512894 59.917519 12,650 78 387 -2432
2020-03-26 14:33:21 GMT 56.509140 59.885227 13,050 78 387 -2240
2020-03-26 14:33:12 GMT 56.505386 59.853432 13,425 77 387 -2176
2020-03-26 14:33:01 GMT 56.501495 59.820972 13,750 77 390 -1856
2020-03-26 14:32:50 GMT 56.497425 59.786568 14,075 78 394 -1728
2020-03-26 14:32:40 GMT 56.493439 59.751476 14,400 78 398 -1728
2020-03-26 14:32:30 GMT 56.489979 59.720566 14,650 78 403 -1856
2020-03-26 14:32:18 GMT 56.485519 59.682144 15,050 78 406 -2048
2020-03-26 14:32:10 GMT 56.482040 59.652184 15,350 78 409 -1920
2020-03-26 14:31:59 GMT 56.477966 59.617138 15,725 77 412 -2240
2020-03-26 14:31:48 GMT 56.473778 59.581432 16,125 78 413 -2176
2020-03-26 14:31:39 GMT 56.469540 59.545555 16,500 77 416 -2176
2020-03-26 14:31:28 GMT 56.465607 59.512356 16,850 78 419 -2240
2020-03-26 14:31:17 GMT 56.461300 59.475601 17,275 77 420 -2368
2020-03-26 14:31:08 GMT 56.457230 59.441444 17,650 77 421 -2368
2020-03-26 14:30:57 GMT 56.452923 59.405136 18,100 77 422 -2560
2020-03-26 14:30:46 GMT 56.448624 59.369202 18,575 77 421 -3008
2020-03-26 14:30:37 GMT 56.444542 59.335182 19,150 77 418 -3648
2020-03-26 14:30:26 GMT 56.440796 59.298874 19,575 82 425 -1408
2020-03-26 14:30:15 GMT 56.438442 59.262314 19,900 83 429 -2240
2020-03-26 14:30:06 GMT 56.436172 59.225464 20,300 83 431 -2240
2020-03-26 14:29:54 GMT 56.433929 59.187511 20,700 84 434 -2304
2020-03-26 14:29:45 GMT 56.431870 59.151806 21,075 84 437 -2240
2020-03-26 14:29:35 GMT 56.429901 59.113354 21,475 84 438 -2240
2020-03-26 14:29:24 GMT 56.428070 59.076065 21,850 84 441 -2240
2020-03-26 14:29:13 GMT 56.426193 59.037949 22,250 84 443 -2240
2020-03-26 14:29:04 GMT 56.424362 58.999992 22,625 84 446 -2240
2020-03-26 14:28:53 GMT 56.422523 58.962765 23,000 84 448 -2304
2020-03-26 14:28:43 GMT 56.420612 58.923969 23,400 84 450 -2304
2020-03-26 14:28:36 GMT 56.419357 58.899250 23,675 84 452 -2368
2020-03-26 14:28:33 GMT 56.418594 58.884140 23,825 84 452 -2368
2020-03-26 14:28:25 GMT 56.417038 58.853260 24,150 84 453 -2368
2020-03-26 14:28:22 GMT 56.416626 58.844936 24,250 84 455 -2368
2020-03-26 14:28:15 GMT 56.415356 58.821747 24,475 84 456 -2496
2020-03-26 14:28:12 GMT 56.414474 58.805321 24,675 84 457 -2496
2020-03-26 14:28:05 GMT 56.413258 58.782780 24,900 84 458 -2432
2020-03-26 14:28:01 GMT 56.412422 58.767586 25,075 84 459 -2368
2020-03-26 14:27:55 GMT 56.411224 58.744980 25,300 84 461 -2368
2020-03-26 14:27:51 GMT 56.410263 58.727333 25,475 84 462 -2432
2020-03-26 14:27:45 GMT 56.409115 58.706131 25,700 84 463 -2496
2020-03-26 14:27:41 GMT 56.408249 58.689381 25,900 84 465 -2432
2020-03-26 14:27:34 GMT 56.406879 58.664162 26,150 84 466 -2432
2020-03-26 14:27:31 GMT 56.406006 58.648182 26,325 84 467 -2432
2020-03-26 14:27:24 GMT 56.404678 58.622963 26,600 84 469 -2496
2020-03-26 14:27:19 GMT 56.403854 58.607254 26,775 84 470 -2496
2020-03-26 14:27:13 GMT 56.402573 58.584095 27,025 84 471 -2496
2020-03-26 14:27:09 GMT 56.401520 58.564537 27,225 84 472 -2496
2020-03-26 14:27:03 GMT 56.400455 58.544769 27,425 84 474 -2496
2020-03-26 14:26:58 GMT 56.399387 58.524773 27,650 84 475 -2496
2020-03-26 14:26:53 GMT 56.398132 58.501282 27,900 84 476 -2496
2020-03-26 14:26:48 GMT 56.397263 58.485550 28,075 84 477 -2496
2020-03-26 14:26:42 GMT 56.395988 58.461597 28,300 84 478 -2496
2020-03-26 14:26:39 GMT 56.395111 58.446350 28,475 84 479 -2560
2020-03-26 14:26:32 GMT 56.393753 58.421947 28,725 84 480 -2624
2020-03-26 14:26:28 GMT 56.392822 58.404865 28,925 84 481 -2624
2020-03-26 14:26:23 GMT 56.391357 58.379517 29,200 84 482 -2560
2020-03-26 14:26:17 GMT 56.390442 58.362785 29,375 84 483 -2560
2020-03-26 14:26:11 GMT 56.388977 58.337154 29,650 84 484 -2624
2020-03-26 14:26:07 GMT 56.388062 58.321091 29,825 84 485 -2624
2020-03-26 14:26:02 GMT 56.386871 58.299366 30,050 84 486 -2624
2020-03-26 14:25:57 GMT 56.385818 58.281303 30,250 84 487 -2560
2020-03-26 14:25:52 GMT 56.384350 58.255260 30,525 84 488 -2560
2020-03-26 14:25:46 GMT 56.383232 58.235435 30,750 84 488 -2944
2020-03-26 14:25:41 GMT 56.382069 58.214748 31,025 84 488 -3456
2020-03-26 14:25:35 GMT 56.380814 58.193035 31,350 83 486 -3456
2020-03-26 14:25:30 GMT 56.379555 58.171322 31,650 83 485 -3520
2020-03-26 14:25:25 GMT 56.378345 58.150375 31,950 83 484 -3456
2020-03-26 14:25:21 GMT 56.377167 58.130993 32,250 83 483 -3456
2020-03-26 14:25:14 GMT 56.375839 58.108189 32,550 83 482 -3456
2020-03-26 14:25:10 GMT 56.374878 58.091789 32,800 83 481 -3456
2020-03-26 14:25:05 GMT 56.373409 58.066437 33,150 83 481 -3264
2020-03-26 14:24:59 GMT 56.372337 58.048580 33,375 84 481 -3008
2020-03-26 14:24:54 GMT 56.371033 58.026123 33,650 84 481 -3008
2020-03-26 14:24:50 GMT 56.369965 58.007641 33,875 83 481 -2880
2020-03-26 14:24:44 GMT 56.368568 57.984123 34,150 83 481 -2688
2020-03-26 14:24:38 GMT 56.367371 57.963615 34,375 83 482 -2368
2020-03-26 14:24:33 GMT 56.366272 57.944473 34,550 83 483 -1728
2020-03-26 14:24:28 GMT 56.365078 57.924728 34,675 83 483 -1280
2020-03-26 14:24:21 GMT 56.363434 57.896866 34,800 83 483 -1024
2020-03-26 14:24:17 GMT 56.362518 57.881470 34,875 83 483 -1024
2020-03-26 14:24:11 GMT 56.361027 57.857094 34,950 83 483 -704
2020-03-26 14:24:08 GMT 56.360138 57.842518 35,000 83 483 -192
2020-03-26 14:24:01 GMT 56.358444 57.814968 35,000 83 482 0
2020-03-26 14:23:57 GMT 56.357445 57.798386 35,000 83 482 0
2020-03-26 14:23:51 GMT 56.355907 57.773666 35,000 83 482 0
2020-03-26 14:23:47 GMT 56.354965 57.758373 35,000 83 482 0
2020-03-26 14:23:39 GMT 56.353252 57.730236 35,000 83 482 0
2020-03-26 14:23:36 GMT 56.352493 57.718090 35,000 83 481 0
2020-03-26 14:23:29 GMT 56.350800 57.690208 35,000 83 482 0
2020-03-26 14:23:26 GMT 56.350067 57.678722 35,000 83 482 0
2020-03-26 14:23:19 GMT 56.348087 57.646725 35,000 83 481 0
2020-03-26 14:23:16 GMT 56.347321 57.634525 35,000 83 480 0
2020-03-26 14:23:09 GMT 56.345718 57.608727 35,000 83 480 0
2020-03-26 14:23:04 GMT 56.344456 57.588272 35,000 83 480 0
2020-03-26 14:22:58 GMT 56.343109 57.566280 35,000 83 480 0
2020-03-26 14:22:55 GMT 56.342312 57.553425 35,000 83 479 0
2020-03-26 14:22:49 GMT 56.340683 57.526993 35,000 83 480 0
2020-03-26 14:22:46 GMT 56.339813 57.513180 35,000 83 480 0
2020-03-26 14:22:38 GMT 56.338028 57.484631 35,000 83 480 0
2020-03-26 14:22:35 GMT 56.337284 57.473000 35,000 83 480 0
2020-03-26 14:22:28 GMT 56.335564 57.444847 35,000 83 479 0
2020-03-26 14:22:25 GMT 56.334824 57.433609 35,000 83 479 0
2020-03-26 14:22:18 GMT 56.332954 57.403736 35,000 83 479 0
2020-03-26 14:22:15 GMT 56.332214 57.392078 35,000 83 479 0
2020-03-26 14:22:07 GMT 56.330383 57.363281 35,000 83 479 0
2020-03-26 14:22:03 GMT 56.329468 57.349380 35,000 83 479 0
2020-03-26 14:21:56 GMT 56.327728 57.322166 35,000 83 479 0
2020-03-26 14:21:53 GMT 56.326675 57.305603 35,000 83 478 0
2020-03-26 14:21:47 GMT 56.325073 57.280716 35,000 83 478 0
2020-03-26 14:21:43 GMT 56.324295 57.268898 35,000 83 478 0
2020-03-26 14:21:36 GMT 56.322529 57.241516 35,000 83 478 0
2020-03-26 14:21:32 GMT 56.321640 57.227535 35,000 83 478 0
2020-03-26 14:21:23 GMT 56.318943 57.186329 35,000 83 478 0
2020-03-26 14:21:16 GMT 56.317127 57.159203 35,000 83 477 0
2020-03-26 14:21:12 GMT 56.316292 57.145729 35,000 83 477 0
2020-03-26 14:21:04 GMT 56.314243 57.115517 35,000 83 477 0
2020-03-26 14:21:01 GMT 56.313591 57.105217 35,000 83 477 0
2020-03-26 14:20:52 GMT 56.310890 57.065132 35,000 83 477 0
2020-03-26 14:20:45 GMT 56.308933 57.036469 35,000 83 476 0
2020-03-26 14:20:40 GMT 56.308002 57.022305 35,000 83 476 0
2020-03-26 14:20:33 GMT 56.306095 56.994411 35,000 83 476 0
2020-03-26 14:20:29 GMT 56.305023 56.978703 35,000 83 476 0
2020-03-26 14:20:24 GMT 56.302597 56.943222 35,000 83 476 0
2020-03-26 14:20:13 GMT 56.300674 56.914589 35,000 83 476 0
2020-03-26 14:20:09 GMT 56.299667 56.900024 35,000 83 476 0
2020-03-26 14:20:03 GMT 56.297882 56.874142 35,000 83 476 0
2020-03-26 14:20:00 GMT 56.297104 56.862404 35,000 83 476 0
2020-03-26 14:19:53 GMT 56.295017 56.831932 35,000 83 476 0
2020-03-26 14:19:49 GMT 56.294319 56.821716 35,000 83 476 0
2020-03-26 14:19:40 GMT 56.291664 56.782837 35,000 82 476 0
2020-03-26 14:19:29 GMT 56.288776 56.741207 35,000 82 477 0
2020-03-26 14:19:19 GMT 56.286030 56.701553 35,000 82 477 0
2020-03-26 14:19:09 GMT 56.283051 56.658573 35,000 82 476 0
2020-03-26 14:18:56 GMT 56.279980 56.614864 35,000 82 476 0
2020-03-26 14:18:47 GMT 56.277374 56.577427 35,000 82 476 0
2020-03-26 14:18:38 GMT 56.274719 56.539165 35,000 82 476 0
2020-03-26 14:18:27 GMT 56.271835 56.499023 35,000 82 476 0
2020-03-26 14:18:16 GMT 56.268768 56.455910 35,000 82 476 0
2020-03-26 14:18:07 GMT 56.265968 56.416595 35,000 82 476 0
2020-03-26 14:17:56 GMT 56.263172 56.377804 35,000 82 476 0
2020-03-26 14:17:45 GMT 56.260197 56.336601 35,000 82 477 0
2020-03-26 14:17:36 GMT 56.257217 56.295490 35,000 82 477 0
2020-03-26 14:17:25 GMT 56.254234 56.255150 35,000 82 477 0
2020-03-26 14:17:14 GMT 56.251305 56.214378 35,000 82 477 0
2020-03-26 14:17:05 GMT 56.248417 56.174812 35,000 82 477 0
2020-03-26 14:16:54 GMT 56.245438 56.134129 35,000 82 477 0
2020-03-26 14:16:43 GMT 56.242401 56.092777 35,000 82 477 0
2020-03-26 14:16:34 GMT 56.239334 56.050915 35,000 82 477 0
2020-03-26 14:16:23 GMT 56.236408 56.011993 35,000 82 476 0
2020-03-26 14:16:12 GMT 56.233425 55.972080 35,000 82 476 0
2020-03-26 14:16:03 GMT 56.230453 55.932812 35,000 82 476 0
2020-03-26 14:15:51 GMT 56.227249 55.890198 35,000 82 475 0
2020-03-26 14:15:41 GMT 56.223999 55.848415 35,000 82 475 0
2020-03-26 14:15:32 GMT 56.221184 55.811665 35,000 82 475 0
2020-03-26 14:15:21 GMT 56.218018 55.770721 35,000 82 475 0
2020-03-26 14:15:10 GMT 56.214706 55.727650 35,000 82 474 0
2020-03-26 14:15:01 GMT 56.211731 55.688782 35,000 82 474 0
2020-03-26 14:14:50 GMT 56.208755 55.650475 35,000 82 474 0
2020-03-26 14:14:40 GMT 56.205635 55.610733 35,000 82 474 0
2020-03-26 14:14:30 GMT 56.202438 55.569763 35,000 82 474 0
2020-03-26 14:14:18 GMT 56.199074 55.527222 35,000 82 474 0
2020-03-26 14:14:08 GMT 56.196095 55.489452 35,000 82 474 0
2020-03-26 14:13:59 GMT 56.192928 55.449116 35,000 82 474 0
2020-03-26 14:13:48 GMT 56.189713 55.408463 35,000 81 474 0
2020-03-26 14:13:38 GMT 56.186691 55.370010 35,000 81 474 0
2020-03-26 14:13:28 GMT 56.183430 55.329124 35,000 81 474 0
2020-03-26 14:13:17 GMT 56.180172 55.288696 35,000 81 474 0
2020-03-26 14:13:07 GMT 56.176758 55.246582 35,000 81 475 0
2020-03-26 14:12:56 GMT 56.173607 55.207932 35,000 81 474 0
2020-03-26 14:12:45 GMT 56.170212 55.167015 35,000 81 474 0
2020-03-26 14:12:36 GMT 56.167007 55.128227 35,000 81 474 0
2020-03-26 14:12:25 GMT 56.163620 55.087196 35,000 81 473 0
2020-03-26 14:12:15 GMT 56.160049 55.044666 35,000 81 473 0
2020-03-26 14:12:05 GMT 56.156940 55.007343 35,000 81 473 0
2020-03-26 14:11:54 GMT 56.153595 54.966930 35,000 81 473 0
2020-03-26 14:11:44 GMT 56.150299 54.927895 35,000 81 472 0
2020-03-26 14:11:34 GMT 56.146912 54.887363 35,000 81 472 0
2020-03-26 14:11:23 GMT 56.143627 54.848213 35,000 81 472 0
2020-03-26 14:11:12 GMT 56.140182 54.807358 35,000 81 471 0
2020-03-26 14:11:03 GMT 56.136749 54.767513 35,000 81 471 0
2020-03-26 14:10:52 GMT 56.133453 54.729057 35,000 81 470 0
2020-03-26 14:10:41 GMT 56.129974 54.688694 35,000 81 470 0
2020-03-26 14:10:32 GMT 56.126541 54.648914 35,000 81 470 0
2020-03-26 14:10:21 GMT 56.123051 54.608662 35,000 81 469 0
2020-03-26 14:10:10 GMT 56.119629 54.569008 35,000 81 469 0
2020-03-26 14:10:01 GMT 56.116161 54.529011 35,000 81 469 0
2020-03-26 14:09:50 GMT 56.112995 54.491844 35,000 81 469 0
2020-03-26 14:09:40 GMT 56.109505 54.451591 35,000 81 469 0
2020-03-26 14:09:30 GMT 56.106060 54.412193 35,000 82 471 0
2020-03-26 14:09:19 GMT 56.103359 54.370396 35,000 85 474 0
2020-03-26 14:09:09 GMT 56.102051 54.332302 35,000 88 477 0
2020-03-26 14:08:58 GMT 56.101913 54.290855 35,000 92 481 0
2020-03-26 14:08:49 GMT 56.102875 54.250820 35,000 92 480 0
2020-03-26 14:08:38 GMT 56.103920 54.209030 35,000 92 480 0
2020-03-26 14:08:27 GMT 56.105026 54.165592 35,000 92 480 0
2020-03-26 14:08:18 GMT 56.105988 54.127560 35,000 92 480 0
2020-03-26 14:08:07 GMT 56.106995 54.087524 35,000 92 480 0
2020-03-26 14:07:56 GMT 56.108063 54.046040 35,000 92 480 0
2020-03-26 14:07:47 GMT 56.109055 54.005875 35,000 92 480 0
2020-03-26 14:07:36 GMT 56.110107 53.962265 35,000 92 480 0
2020-03-26 14:07:26 GMT 56.110996 53.924931 35,000 92 480 0
2020-03-26 14:07:15 GMT 56.112019 53.881329 35,000 92 479 0
2020-03-26 14:07:06 GMT 56.112904 53.842533 35,000 92 479 0
2020-03-26 14:06:53 GMT 56.113930 53.796616 35,000 92 479 0
2020-03-26 14:06:43 GMT 56.114822 53.755688 35,000 92 480 0
2020-03-26 14:06:35 GMT 56.115604 53.720310 35,000 92 480 0
2020-03-26 14:06:24 GMT 56.116489 53.678684 35,000 92 480 0
2020-03-26 14:06:13 GMT 56.117432 53.637669 35,000 92 480 0
2020-03-26 14:06:04 GMT 56.118256 53.598465 35,000 92 480 0
2020-03-26 14:05:54 GMT 56.119171 53.556850 35,000 92 480 0
2020-03-26 14:05:42 GMT 56.120041 53.515652 35,000 92 480 0
2020-03-26 14:05:32 GMT 56.120865 53.475204 35,000 92 480 0
2020-03-26 14:05:23 GMT 56.121735 53.433586 35,000 92 480 0
2020-03-26 14:05:11 GMT 56.122559 53.392307 35,000 92 480 0
2020-03-26 14:04:59 GMT 56.123566 53.339622 35,000 91 480 0
2020-03-26 14:04:52 GMT 56.124077 53.311241 35,000 91 480 0
2020-03-26 14:04:48 GMT 56.124298 53.298424 35,000 91 480 0
2020-03-26 14:04:41 GMT 56.124821 53.271675 35,000 91 480 0
2020-03-26 14:04:35 GMT 56.125214 53.249233 35,000 91 480 0
2020-03-26 14:04:30 GMT 56.125534 53.229843 35,000 91 480 0
2020-03-26 14:04:25 GMT 56.125900 53.209202 35,000 91 480 0
2020-03-26 14:04:21 GMT 56.126263 53.187649 35,000 91 480 0
2020-03-26 14:04:17 GMT 56.126495 53.173740 35,000 91 480 0
2020-03-26 14:04:11 GMT 56.126915 53.148422 35,000 91 480 0
2020-03-26 14:04:07 GMT 56.127136 53.134708 35,000 91 480 0
2020-03-26 14:04:00 GMT 56.127594 53.108578 35,000 91 480 0
2020-03-26 14:03:49 GMT 56.128235 53.066628 35,000 91 480 0
2020-03-26 14:03:40 GMT 56.128918 53.025600 35,000 91 480 0
2020-03-26 14:03:35 GMT 56.129242 53.004787 35,000 91 480 0
2020-03-26 14:03:29 GMT 56.129570 52.985172 35,000 91 480 0
2020-03-26 14:03:26 GMT 56.129791 52.972244 35,000 91 480 0
2020-03-26 14:03:16 GMT 56.130386 52.933376 35,000 91 480 0
2020-03-26 14:03:09 GMT 56.130825 52.903893 35,000 91 480 0
2020-03-26 14:03:05 GMT 56.131073 52.890182 35,000 91 480 0
2020-03-26 14:02:58 GMT 56.131485 52.862049 35,000 91 480 0
2020-03-26 14:02:55 GMT 56.131622 52.851395 35,000 91 480 0
2020-03-26 14:02:45 GMT 56.132271 52.810333 35,000 91 480 0
2020-03-26 14:02:38 GMT 56.132687 52.781410 35,000 91 480 0
2020-03-26 14:02:27 GMT 56.133316 52.740452 35,000 91 479 0
2020-03-26 14:02:20 GMT 56.133774 52.710323 35,000 91 479 0
2020-03-26 14:02:14 GMT 56.134087 52.689228 35,000 91 479 0
2020-03-26 14:02:07 GMT 56.134548 52.657558 35,000 91 479 0
2020-03-26 14:02:04 GMT 56.134689 52.647484 35,000 91 479 0
2020-03-26 14:01:57 GMT 56.135101 52.618603 35,000 91 479 0
2020-03-26 14:01:54 GMT 56.135239 52.607948 35,000 91 478 0
2020-03-26 14:01:44 GMT 56.135807 52.565887 35,000 91 478 0
2020-03-26 14:01:36 GMT 56.136154 52.537537 35,000 91 478 0
2020-03-26 14:01:33 GMT 56.136292 52.526550 35,000 91 478 0
2020-03-26 14:01:26 GMT 56.136646 52.496712 35,000 91 478 0
2020-03-26 14:01:23 GMT 56.136749 52.486683 35,000 91 478 0
2020-03-26 14:01:15 GMT 56.137115 52.454224 35,000 91 478 0
2020-03-26 14:01:12 GMT 56.137203 52.444954 35,000 91 478 0
2020-03-26 14:01:03 GMT 56.137669 52.405045 35,000 91 478 0
2020-03-26 14:00:52 GMT 56.138088 52.364017 35,000 91 478 0
2020-03-26 14:00:42 GMT 56.138508 52.323334 35,000 91 477 0
2020-03-26 14:00:31 GMT 56.138927 52.282307 35,000 91 477 0
2020-03-26 14:00:24 GMT 56.139221 52.251392 35,000 91 476 0
2020-03-26 14:00:21 GMT 56.139313 52.243153 35,000 91 476 0
2020-03-26 14:00:11 GMT 56.139725 52.201870 35,000 90 475 0
2020-03-26 14:00:01 GMT 56.140091 52.162670 35,000 90 475 0
2020-03-26 13:59:51 GMT 56.140503 52.121887 35,000 90 475 0
2020-03-26 13:59:40 GMT 56.140869 52.080688 35,000 90 474 0
2020-03-26 13:59:30 GMT 56.141209 52.040607 35,000 90 474 -64
2020-03-26 13:59:20 GMT 56.141556 52.001621 35,000 90 473 0
2020-03-26 13:59:10 GMT 56.141953 51.959667 35,000 90 473 0
2020-03-26 13:58:59 GMT 56.142231 51.921387 35,000 90 472 0
2020-03-26 13:58:48 GMT 56.142563 51.876694 35,000 90 472 0
2020-03-26 13:58:41 GMT 56.142746 51.847813 35,000 90 471 0
2020-03-26 13:58:38 GMT 56.142792 51.840618 35,000 90 471 0
2020-03-26 13:58:29 GMT 56.143024 51.800537 35,000 90 471 0
2020-03-26 13:58:18 GMT 56.143303 51.760113 35,000 90 470 0
2020-03-26 13:58:07 GMT 56.143524 51.720303 35,000 90 470 0
2020-03-26 13:57:58 GMT 56.143799 51.681519 35,000 90 469 0
2020-03-26 13:57:47 GMT 56.144001 51.640720 35,000 90 468 0
2020-03-26 13:57:37 GMT 56.144188 51.602013 35,000 90 468 0
2020-03-26 13:57:27 GMT 56.144394 51.562752 35,000 90 468 0
2020-03-26 13:57:17 GMT 56.144558 51.522446 35,000 90 468 0
2020-03-26 13:57:06 GMT 56.144745 51.483395 35,000 90 468 0
2020-03-26 13:56:58 GMT 56.144886 51.449745 35,000 90 468 0
2020-03-26 13:56:45 GMT 56.145069 51.401855 35,000 90 469 0
2020-03-26 13:56:35 GMT 56.145218 51.357422 35,000 90 469 0
2020-03-26 13:56:24 GMT 56.145309 51.319885 35,000 90 470 0
2020-03-26 13:56:14 GMT 56.145397 51.280403 35,000 90 470 0
2020-03-26 13:56:03 GMT 56.145447 51.240150 35,000 90 471 0
2020-03-26 13:55:54 GMT 56.145538 51.199894 35,000 90 471 0
2020-03-26 13:55:43 GMT 56.145538 51.160583 35,000 90 471 0
2020-03-26 13:55:32 GMT 56.145584 51.118717 35,000 90 471 0
2020-03-26 13:55:23 GMT 56.145584 51.079433 35,000 90 472 0
2020-03-26 13:55:12 GMT 56.145584 51.039047 35,000 89 472 0
2020-03-26 13:55:01 GMT 56.145538 50.998535 35,000 89 472 0
2020-03-26 13:54:52 GMT 56.145493 50.958584 35,000 89 472 0
2020-03-26 13:54:41 GMT 56.145397 50.917423 35,000 89 472 0
2020-03-26 13:54:30 GMT 56.145355 50.877518 35,000 89 472 0
2020-03-26 13:54:21 GMT 56.145306 50.837605 35,000 89 471 0
2020-03-26 13:54:10 GMT 56.145210 50.797520 35,000 89 471 0
2020-03-26 13:54:00 GMT 56.145126 50.758835 35,000 89 470 0
2020-03-26 13:53:50 GMT 56.145035 50.717636 35,000 89 470 0
2020-03-26 13:53:39 GMT 56.144943 50.678432 35,000 89 470 0
2020-03-26 13:53:29 GMT 56.144806 50.637733 35,000 89 470 0
2020-03-26 13:53:18 GMT 56.144653 50.598736 35,000 89 469 0
2020-03-26 13:53:08 GMT 56.144512 50.557625 35,000 89 469 0
2020-03-26 13:52:58 GMT 56.144348 50.517551 35,000 89 469 0
2020-03-26 13:52:47 GMT 56.144165 50.478432 35,000 89 468 0
2020-03-26 13:52:38 GMT 56.143936 50.437401 35,000 89 468 0
2020-03-26 13:52:27 GMT 56.143768 50.398495 35,000 89 468 0
2020-03-26 13:52:19 GMT 56.143570 50.365406 35,000 89 469 0
2020-03-26 13:52:07 GMT 56.143295 50.318214 35,000 89 469 0
2020-03-26 13:51:56 GMT 56.143066 50.279099 35,000 89 469 0
2020-03-26 13:51:46 GMT 56.142838 50.238934 35,000 89 469 0
2020-03-26 13:51:36 GMT 56.142555 50.198338 35,000 89 469 0
2020-03-26 13:51:25 GMT 56.142231 50.157993 35,000 89 469 0
2020-03-26 13:51:15 GMT 56.141953 50.119717 35,000 89 469 0
2020-03-26 13:51:04 GMT 56.141693 50.079678 35,000 89 468 0
2020-03-26 13:50:55 GMT 56.141396 50.038860 35,000 89 468 0
2020-03-26 13:50:44 GMT 56.141068 50.000584 35,000 89 468 0
2020-03-26 13:50:33 GMT 56.140732 49.958996 35,000 89 468 0
2020-03-26 13:50:24 GMT 56.140369 49.920502 35,000 89 468 0
2020-03-26 13:50:13 GMT 56.139996 49.880421 35,000 89 467 0
2020-03-26 13:50:03 GMT 56.139626 49.840939 35,000 89 467 0
2020-03-26 13:49:52 GMT 56.139221 49.801441 35,000 88 467 0
2020-03-26 13:49:43 GMT 56.138809 49.760910 35,000 88 467 0
2020-03-26 13:49:32 GMT 56.138367 49.722149 35,000 88 467 0
2020-03-26 13:49:24 GMT 56.138042 49.690907 35,000 88 467 0
2020-03-26 13:49:21 GMT 56.137939 49.681091 35,000 88 467 0
2020-03-26 13:49:12 GMT 56.137436 49.641209 35,000 88 467 0
2020-03-26 13:49:04 GMT 56.137066 49.609966 35,000 88 467 0
2020-03-26 13:49:01 GMT 56.136971 49.601810 35,000 88 467 0
2020-03-26 13:48:53 GMT 56.136600 49.572544 35,000 88 467 0
2020-03-26 13:48:50 GMT 56.136459 49.560959 35,000 88 467 0
2020-03-26 13:48:41 GMT 56.136017 49.523373 35,000 88 467 0
2020-03-26 13:48:33 GMT 56.135620 49.493492 35,000 88 467 0
2020-03-26 13:48:29 GMT 56.135468 49.479843 35,000 88 467 0
2020-03-26 13:48:23 GMT 56.135010 49.443638 35,000 88 467 0
2020-03-26 13:48:10 GMT 56.134457 49.402943 35,000 88 467 0
2020-03-26 13:48:02 GMT 56.134087 49.373672 35,000 88 467 64
2020-03-26 13:47:59 GMT 56.133945 49.364407 35,000 88 467 0
2020-03-26 13:47:49 GMT 56.133389 49.324322 35,000 88 467 0
2020-03-26 13:47:42 GMT 56.133015 49.295826 35,000 88 467 0
2020-03-26 13:47:38 GMT 56.132858 49.283669 35,000 88 467 0
2020-03-26 13:47:31 GMT 56.132446 49.255539 35,000 88 466 0
2020-03-26 13:47:28 GMT 56.132263 49.243969 35,000 88 466 0
2020-03-26 13:47:20 GMT 56.131851 49.215088 35,000 88 466 0
2020-03-26 13:47:17 GMT 56.131664 49.204159 35,000 88 466 0
2020-03-26 13:47:08 GMT 56.131058 49.163387 35,000 88 465 0
2020-03-26 13:47:00 GMT 56.130615 49.136684 35,000 88 465 0
2020-03-26 13:46:56 GMT 56.130405 49.123478 35,000 88 465 0
2020-03-26 13:46:50 GMT 56.129990 49.098160 35,000 88 465 0
2020-03-26 13:46:46 GMT 56.129803 49.084682 35,000 88 465 0
2020-03-26 13:46:37 GMT 56.129150 49.045383 35,000 88 465 0
2020-03-26 13:46:30 GMT 56.128738 49.018913 35,000 88 465 0
2020-03-26 13:46:26 GMT 56.128544 49.005630 35,000 88 465 0
2020-03-26 13:46:19 GMT 56.128124 48.979969 35,000 88 465 0
2020-03-26 13:46:16 GMT 56.127892 48.966064 35,000 88 465 0
2020-03-26 13:46:09 GMT 56.127476 48.939972 35,000 88 466 0
2020-03-26 13:46:06 GMT 56.127228 48.925949 35,000 88 466 0
2020-03-26 13:45:58 GMT 56.126778 48.899975 35,000 88 466 0
2020-03-26 13:45:55 GMT 56.126587 48.887497 35,000 88 466 0
2020-03-26 13:45:49 GMT 56.126125 48.861866 35,000 88 466 -64
2020-03-26 13:45:44 GMT 56.125847 48.846500 35,000 88 466 0
2020-03-26 13:45:38 GMT 56.125427 48.820751 35,000 88 466 0
2020-03-26 13:45:35 GMT 56.125168 48.806347 35,000 88 466 0
2020-03-26 13:45:28 GMT 56.124710 48.782875 35,000 88 466 0
2020-03-26 13:45:24 GMT 56.124481 48.768227 35,000 88 466 0
2020-03-26 13:45:18 GMT 56.124023 48.743259 35,000 88 466 0
2020-03-26 13:45:14 GMT 56.123703 48.727627 35,000 88 466 0
2020-03-26 13:45:08 GMT 56.123245 48.702892 35,000 88 466 0
2020-03-26 13:45:03 GMT 56.123005 48.689175 35,000 88 466 0
2020-03-26 13:44:57 GMT 56.122513 48.663940 35,000 88 466 0
2020-03-26 13:44:54 GMT 56.122238 48.648960 35,000 88 466 0
2020-03-26 13:44:46 GMT 56.121750 48.623688 35,000 87 466 0
2020-03-26 13:44:42 GMT 56.121414 48.607677 35,000 87 466 0
2020-03-26 13:44:36 GMT 56.120956 48.584621 35,000 87 466 0
2020-03-26 13:44:33 GMT 56.120636 48.568810 35,000 87 466 0
2020-03-26 13:44:27 GMT 56.120167 48.544376 35,000 87 466 0
2020-03-26 13:44:22 GMT 56.119839 48.529446 35,000 87 466 0
2020-03-26 13:44:16 GMT 56.119328 48.505497 35,000 87 466 0
2020-03-26 13:44:12 GMT 56.119003 48.489704 35,000 87 467 0
2020-03-26 13:44:05 GMT 56.118530 48.464855 35,000 87 467 0
2020-03-26 13:44:01 GMT 56.118210 48.449707 35,000 87 467 0
2020-03-26 13:43:55 GMT 56.117706 48.425987 35,000 87 467 0
2020-03-26 13:43:52 GMT 56.117340 48.409424 35,000 87 467 0
2020-03-26 13:43:45 GMT 56.116814 48.385677 35,000 87 467 0
2020-03-26 13:43:41 GMT 56.116489 48.371086 35,000 87 467 0
2020-03-26 13:43:35 GMT 56.115974 48.348343 35,000 87 467 0
2020-03-26 13:43:30 GMT 56.115604 48.330662 35,000 87 467 0
2020-03-26 13:43:25 GMT 56.115097 48.308048 35,000 87 467 0
2020-03-26 13:43:21 GMT 56.114765 48.292122 35,000 87 467 0
2020-03-26 13:43:15 GMT 56.114227 48.267685 35,000 87 467 0
2020-03-26 13:43:10 GMT 56.113815 48.250290 35,000 87 467 0
2020-03-26 13:43:04 GMT 56.113312 48.229149 35,000 87 467 0
2020-03-26 13:43:00 GMT 56.112946 48.212585 35,000 87 467 0
2020-03-26 13:42:54 GMT 56.112392 48.188869 35,000 87 467 0
2020-03-26 13:42:49 GMT 56.111984 48.169388 35,000 87 467 0
2020-03-26 13:42:43 GMT 56.111507 48.148785 35,000 87 467 0
2020-03-26 13:42:38 GMT 56.111042 48.129128 35,000 87 467 0
2020-03-26 13:42:34 GMT 56.110577 48.109901 35,000 87 467 0
2020-03-26 13:42:29 GMT 56.110153 48.092403 35,000 87 466 0
2020-03-26 13:42:22 GMT 56.109596 48.068707 35,000 87 466 0
2020-03-26 13:42:18 GMT 56.109192 48.053532 35,000 87 466 0
2020-03-26 13:42:12 GMT 56.108620 48.030598 35,000 87 466 0
2020-03-26 13:42:09 GMT 56.108204 48.013344 35,000 87 466 0
2020-03-26 13:42:02 GMT 56.107635 47.991196 35,000 87 466 0
2020-03-26 13:41:58 GMT 56.107224 47.974117 35,000 87 466 0
2020-03-26 13:41:53 GMT 56.106674 47.953159 35,000 87 466 0
2020-03-26 13:41:46 GMT 56.106079 47.929688 35,000 87 466 0
2020-03-26 13:41:41 GMT 56.105595 47.911465 35,000 87 466 0
2020-03-26 13:41:38 GMT 56.105175 47.895241 35,000 87 466 0
2020-03-26 13:41:32 GMT 56.104618 47.873356 35,000 87 466 0
2020-03-26 13:41:27 GMT 56.104156 47.855862 35,000 87 466 -64
2020-03-26 13:41:21 GMT 56.103607 47.834225 35,000 87 466 0
2020-03-26 13:41:17 GMT 56.103081 47.815933 35,000 87 466 0
2020-03-26 13:41:12 GMT 56.102509 47.794273 35,000 87 466 0
2020-03-26 13:41:07 GMT 56.101959 47.773464 35,000 87 466 0
2020-03-26 13:41:01 GMT 56.101456 47.754574 35,000 87 466 0
2020-03-26 13:40:56 GMT 56.100906 47.734928 35,000 87 466 64
2020-03-26 13:40:51 GMT 56.100380 47.716286 35,000 87 467 0
2020-03-26 13:40:46 GMT 56.099854 47.696480 35,000 87 467 0
2020-03-26 13:40:40 GMT 56.099258 47.675339 35,000 87 467 0
2020-03-26 13:40:35 GMT 56.098660 47.654743 35,000 87 467 0
2020-03-26 13:40:31 GMT 56.098206 47.637218 35,000 87 467 0
2020-03-26 13:40:19 GMT 56.097031 47.594234 35,000 87 467 0
2020-03-26 13:40:10 GMT 56.096008 47.557816 35,000 87 467 0
2020-03-26 13:39:59 GMT 56.094887 47.516727 35,000 87 467 0
2020-03-26 13:39:49 GMT 56.093811 47.478333 35,000 87 467 0
2020-03-26 13:39:39 GMT 56.092712 47.439049 35,000 87 467 0
2020-03-26 13:39:28 GMT 56.091568 47.398930 35,000 87 467 -64
2020-03-26 13:39:19 GMT 56.090420 47.359486 35,000 87 467 0
2020-03-26 13:39:08 GMT 56.089279 47.319199 35,000 86 467 0
2020-03-26 13:38:58 GMT 56.088139 47.280521 35,000 86 467 0
2020-03-26 13:38:47 GMT 56.086945 47.240295 35,000 86 467 0
2020-03-26 13:38:38 GMT 56.085800 47.201759 35,000 86 467 0
2020-03-26 13:38:27 GMT 56.084564 47.162144 35,000 86 466 0
2020-03-26 13:38:17 GMT 56.083374 47.122940 35,000 86 466 0
2020-03-26 13:38:06 GMT 56.082134 47.082424 35,000 86 466 0
2020-03-26 13:37:57 GMT 56.080948 47.044205 35,000 86 466 0
2020-03-26 13:37:46 GMT 56.079712 47.005005 35,000 86 465 0
2020-03-26 13:37:36 GMT 56.078457 46.964924 35,000 86 465 0
2020-03-26 13:37:25 GMT 56.077152 46.925011 35,000 86 465 0
2020-03-26 13:37:16 GMT 56.075912 46.886818 35,000 86 465 -64
2020-03-26 13:37:05 GMT 56.074547 46.846390 35,000 86 465 0
2020-03-26 13:36:54 GMT 56.073196 46.806564 35,000 86 465 0
2020-03-26 13:36:44 GMT 56.071892 46.768627 35,000 86 465 0
2020-03-26 13:36:35 GMT 56.070511 46.729015 35,000 86 464 0
2020-03-26 13:36:24 GMT 56.069191 46.690090 35,000 86 464 0
2020-03-26 13:36:18 GMT 56.068405 46.667759 35,000 86 464 0
2020-03-26 13:36:13 GMT 56.067795 46.650269 35,000 86 464 0
2020-03-26 13:36:09 GMT 56.067097 46.630783 35,000 86 464 0
2020-03-26 13:36:04 GMT 56.066444 46.611645 35,000 86 464 0
2020-03-26 13:35:53 GMT 56.065048 46.571560 35,000 86 463 0
2020-03-26 13:35:43 GMT 56.063782 46.533176 35,000 86 463 0
2020-03-26 13:35:32 GMT 56.062534 46.492939 35,000 86 463 0
2020-03-26 13:35:23 GMT 56.061275 46.454060 35,000 86 462 0
2020-03-26 13:35:11 GMT 56.059975 46.412518 35,000 86 462 0
2020-03-26 13:35:02 GMT 56.058762 46.375607 35,000 86 462 0
2020-03-26 13:34:51 GMT 56.057461 46.335609 35,000 86 462 0
2020-03-26 13:34:42 GMT 56.056202 46.297588 35,000 86 461 0
2020-03-26 13:34:31 GMT 56.054901 46.259995 35,000 86 461 0
2020-03-26 13:34:28 GMT 56.054306 46.243034 35,000 86 461 0
2020-03-26 13:34:21 GMT 56.053528 46.219814 35,000 86 461 0
2020-03-26 13:34:10 GMT 56.052109 46.180698 35,000 86 461 0
2020-03-26 13:34:01 GMT 56.050781 46.141911 35,000 86 462 0
2020-03-26 13:33:50 GMT 56.049408 46.103542 35,000 86 462 0
2020-03-26 13:33:40 GMT 56.048035 46.063927 35,000 86 461 0
2020-03-26 13:33:29 GMT 56.046612 46.023102 35,000 86 461 0
2020-03-26 13:33:17 GMT 56.045078 45.979416 35,000 86 461 0
2020-03-26 13:33:08 GMT 56.043869 45.945824 35,000 86 461 0
2020-03-26 13:32:58 GMT 56.042404 45.905209 35,000 86 460 0
2020-03-26 13:32:46 GMT 56.040703 45.858395 35,000 86 461 0
2020-03-26 13:32:38 GMT 56.039677 45.830753 35,000 86 462 64
2020-03-26 13:32:23 GMT 56.037441 45.772133 35,000 86 464 0
2020-03-26 13:32:17 GMT 56.036682 45.751732 35,000 86 464 0
2020-03-26 13:32:06 GMT 56.034943 45.705956 35,000 86 464 -64
2020-03-26 13:31:49 GMT 56.032600 45.645535 35,000 86 463 0
2020-03-26 13:31:30 GMT 56.029621 45.570171 35,000 86 462 0
2020-03-26 13:31:26 GMT 56.028854 45.550648 35,000 85 462 0
2020-03-26 13:31:14 GMT 56.027203 45.508717 35,000 85 461 0
2020-03-26 13:31:03 GMT 56.025650 45.470997 35,000 85 461 0
2020-03-26 13:30:53 GMT 56.024128 45.432930 35,000 85 461 0
2020-03-26 13:30:44 GMT 56.022545 45.394306 35,000 85 461 0
2020-03-26 13:30:34 GMT 56.020981 45.355888 35,000 85 460 0
2020-03-26 13:30:23 GMT 56.019379 45.316799 35,000 85 460 0
2020-03-26 13:30:14 GMT 56.018078 45.284615 35,000 85 460 0
2020-03-26 13:30:05 GMT 56.016354 45.244961 35,000 85 460 0
2020-03-26 13:29:54 GMT 56.014755 45.207741 35,000 85 460 0
2020-03-26 13:29:43 GMT 56.012924 45.165878 35,000 85 459 0
2020-03-26 13:29:33 GMT 56.011372 45.129433 35,000 85 459 0
2020-03-26 13:29:23 GMT 56.009674 45.090054 35,000 85 459 0
2020-03-26 13:29:13 GMT 56.008072 45.051685 35,000 84 457 0
2020-03-26 13:29:03 GMT 56.005646 45.014851 35,000 80 454 0
2020-03-26 13:28:53 GMT 56.001831 44.976139 35,000 79 455 0
2020-03-26 13:28:49 GMT 56.000622 44.964725 35,000 79 455 64
2020-03-26 13:28:42 GMT 55.997726 44.937660 35,000 79 455 0
2020-03-26 13:28:32 GMT 55.993835 44.900791 35,000 79 455 -64
2020-03-26 13:28:28 GMT 55.992371 44.887222 35,000 79 455 0
2020-03-26 13:28:21 GMT 55.989727 44.862411 35,000 79 455 0
2020-03-26 13:28:12 GMT 55.985630 44.824135 35,000 79 455 0
2020-03-26 13:28:01 GMT 55.981766 44.788082 35,000 79 455 0
2020-03-26 13:27:51 GMT 55.977764 44.750576 35,000 79 455 0
2020-03-26 13:27:48 GMT 55.976414 44.738045 35,000 79 455 0
2020-03-26 13:27:40 GMT 55.973618 44.712296 35,000 79 455 0
2020-03-26 13:27:37 GMT 55.972412 44.701122 35,000 79 455 0
2020-03-26 13:27:31 GMT 55.969383 44.673412 35,000 78 455 0
2020-03-26 13:27:27 GMT 55.968201 44.662170 35,000 78 455 0
2020-03-26 13:27:18 GMT 55.964214 44.625950 35,000 78 455 0
2020-03-26 13:27:10 GMT 55.961380 44.599747 35,000 78 455 0
2020-03-26 13:27:07 GMT 55.960190 44.588680 35,000 78 455 0
2020-03-26 13:26:57 GMT 55.956116 44.551365 35,000 78 455 0
2020-03-26 13:26:50 GMT 55.953045 44.523468 35,000 78 455 0
2020-03-26 13:26:46 GMT 55.951859 44.513023 35,000 78 455 0
2020-03-26 13:26:37 GMT 55.947830 44.476234 35,000 78 455 0
2020-03-26 13:26:26 GMT 55.943619 44.438450 35,000 78 455 0
2020-03-26 13:26:21 GMT 55.941513 44.419308 35,000 78 455 0
2020-03-26 13:26:18 GMT 55.940613 44.411030 35,000 78 455 -64
2020-03-26 13:26:15 GMT 55.939133 44.397999 35,000 78 455 0
2020-03-26 13:26:09 GMT 55.935307 44.363220 35,000 78 455 0
2020-03-26 13:25:59 GMT 55.931816 44.332066 35,000 78 455 0
2020-03-26 13:25:56 GMT 55.931259 44.327087 35,000 78 455 0
2020-03-26 13:25:46 GMT 55.926926 44.287949 35,000 78 455 0
2020-03-26 13:25:35 GMT 55.922882 44.252098 35,000 78 455 -64
2020-03-26 13:25:25 GMT 55.918503 44.213364 35,000 78 455 0
2020-03-26 13:25:17 GMT 55.915283 44.184597 35,000 78 455 0
2020-03-26 13:25:14 GMT 55.914265 44.175510 35,000 78 455 64
2020-03-26 13:25:08 GMT 55.910774 44.144695 35,000 78 456 0
2020-03-26 13:25:05 GMT 55.910202 44.139404 35,000 78 456 0
2020-03-26 13:24:55 GMT 55.905899 44.101536 35,000 78 456 0
2020-03-26 13:24:46 GMT 55.902439 44.070885 35,000 78 456 0
2020-03-26 13:24:43 GMT 55.901276 44.060753 35,000 78 457 0
2020-03-26 13:24:36 GMT 55.898254 44.034286 35,000 78 457 0
2020-03-26 13:24:33 GMT 55.897228 44.024879 35,000 78 457 0
2020-03-26 13:24:23 GMT 55.892715 43.985428 35,000 78 456 0
2020-03-26 13:24:14 GMT 55.888802 43.951492 35,000 78 455 0
2020-03-26 13:24:02 GMT 55.883011 43.901115 35,000 78 455 0
2020-03-26 13:23:51 GMT 55.877956 43.857334 35,000 78 455 0
2020-03-26 13:23:44 GMT 55.876511 43.845104 35,000 78 455 0
2020-03-26 13:23:38 GMT 55.873066 43.815365 35,000 78 454 0
2020-03-26 13:23:35 GMT 55.872208 43.807899 35,000 78 454 0
2020-03-26 13:23:22 GMT 55.866898 43.762207 35,000 78 453 0
2020-03-26 13:23:14 GMT 55.863522 43.733227 35,000 78 453 0
2020-03-26 13:23:08 GMT 55.860683 43.708935 35,000 78 453 0
2020-03-26 13:23:02 GMT 55.858589 43.691082 35,000 78 452 0
2020-03-26 13:22:57 GMT 55.855591 43.665413 35,000 78 452 0
2020-03-26 13:22:54 GMT 55.854771 43.658382 35,000 78 452 0
2020-03-26 13:22:51 GMT 55.853886 43.650742 35,000 78 452 0
2020-03-26 13:22:41 GMT 55.849136 43.610561 35,000 78 452 0
2020-03-26 13:22:32 GMT 55.845062 43.576023 35,000 78 452 0
2020-03-26 13:22:20 GMT 55.840530 43.537903 35,000 78 452 0
2020-03-26 13:22:13 GMT 55.837219 43.509808 35,000 78 452 0
2020-03-26 13:22:09 GMT 55.835918 43.498905 35,000 78 451 0
2020-03-26 13:22:00 GMT 55.831604 43.462498 35,000 78 451 0
2020-03-26 13:21:51 GMT 55.828236 43.434105 35,000 78 450 0
2020-03-26 13:21:48 GMT 55.827118 43.424793 35,000 78 450 0
2020-03-26 13:21:38 GMT 55.821442 43.376598 35,000 78 450 0
2020-03-26 13:21:30 GMT 55.819019 43.356342 35,000 78 450 0
2020-03-26 13:21:26 GMT 55.816505 43.335056 35,000 78 449 64
2020-03-26 13:21:19 GMT 55.814178 43.315575 35,000 79 451 -64
2020-03-26 13:21:14 GMT 55.812195 43.298866 35,000 78 449 0
2020-03-26 13:21:09 GMT 55.809860 43.279308 35,000 78 449 0
2020-03-26 13:21:04 GMT 55.807617 43.260582 35,000 77 449 0
2020-03-26 13:20:58 GMT 55.804688 43.236446 35,000 77 450 0
2020-03-26 13:20:54 GMT 55.803238 43.224422 35,000 77 450 -64
2020-03-26 13:20:48 GMT 55.801098 43.206738 35,000 79 451 -64
2020-03-26 13:20:43 GMT 55.798737 43.184425 35,000 80 451 0
2020-03-26 13:20:38 GMT 55.797363 43.169193 35,000 82 452 64
2020-03-26 13:20:32 GMT 55.795464 43.140736 35,000 84 452 0
2020-03-26 13:20:29 GMT 55.795139 43.134899 35,000 85 453 0
2020-03-26 13:20:17 GMT 55.793743 43.090954 35,000 87 452 -64
2020-03-26 13:20:08 GMT 55.792923 43.056751 35,000 87 451 0
2020-03-26 13:19:57 GMT 55.792053 43.018715 35,000 87 450 64
2020-03-26 13:19:48 GMT 55.791229 42.984509 35,000 87 451 0
2020-03-26 13:19:45 GMT 55.790909 42.970444 35,000 87 451 0
2020-03-26 13:19:37 GMT 55.790298 42.942554 35,000 87 451 0
2020-03-26 13:19:27 GMT 55.789459 42.905643 35,000 87 451 0
2020-03-26 13:19:16 GMT 55.788574 42.866936 35,000 87 451 0
2020-03-26 13:19:07 GMT 55.787796 42.833862 35,000 87 451 -64
2020-03-26 13:18:56 GMT 55.786743 42.790665 35,000 87 451 0
2020-03-26 13:18:49 GMT 55.786060 42.764282 35,000 87 451 64
2020-03-26 13:18:45 GMT 55.785736 42.751881 35,000 87 451 64
2020-03-26 13:18:35 GMT 55.784801 42.714329 35,000 87 452 0
2020-03-26 13:18:31 GMT 55.784340 42.697762 35,000 87 452 0
2020-03-26 13:18:25 GMT 55.783859 42.677559 35,000 87 452 0
2020-03-26 13:18:16 GMT 55.782803 42.638626 35,000 87 452 0
2020-03-26 13:18:04 GMT 55.781845 42.601818 35,000 87 452 0
2020-03-26 13:17:55 GMT 55.780891 42.565758 35,000 87 451 -64
2020-03-26 13:17:49 GMT 55.780239 42.542839 35,000 87 451 0
2020-03-26 13:17:45 GMT 55.779877 42.529408 35,000 87 451 0
2020-03-26 13:17:41 GMT 55.779495 42.515545 35,000 87 451 0
2020-03-26 13:17:34 GMT 55.778847 42.490139 35,000 87 451 64
2020-03-26 13:17:30 GMT 55.778366 42.474060 35,000 87 451 64
2020-03-26 13:17:24 GMT 55.777771 42.451504 35,000 87 451 0
2020-03-26 13:17:19 GMT 55.777222 42.431614 35,000 87 451 -64
2020-03-26 13:17:13 GMT 55.776657 42.411091 35,000 87 451 0
2020-03-26 13:17:09 GMT 55.776192 42.394524 35,000 87 451 0
2020-03-26 13:17:04 GMT 55.775757 42.378429 35,000 87 452 0
2020-03-26 13:16:57 GMT 55.775116 42.355873 35,000 87 452 0
2020-03-26 13:16:53 GMT 55.774612 42.337399 35,000 87 452 0
2020-03-26 13:16:44 GMT 55.773582 42.301743 35,000 87 452 0
2020-03-26 13:16:32 GMT 55.772423 42.261059 35,000 87 452 0
2020-03-26 13:16:23 GMT 55.771454 42.227200 35,000 86 452 64
2020-03-26 13:16:13 GMT 55.770233 42.186642 35,000 86 452 -64
2020-03-26 13:16:01 GMT 55.769073 42.146549 35,000 86 452 64
2020-03-26 13:15:58 GMT 55.768650 42.132999 35,000 86 452 0
2020-03-26 13:15:52 GMT 55.767929 42.109848 35,000 86 452 0
2020-03-26 13:15:49 GMT 55.767719 42.102699 35,000 86 452 0
2020-03-26 13:15:43 GMT 55.766968 42.078053 35,000 86 452 0
2020-03-26 13:15:39 GMT 55.766556 42.064590 35,000 86 452 0
2020-03-26 13:15:33 GMT 55.765869 42.041016 35,000 86 452 0
2020-03-26 13:15:30 GMT 55.765392 42.025707 35,000 86 452 0
2020-03-26 13:15:23 GMT 55.764645 42.002792 35,000 86 452 0
2020-03-26 13:15:19 GMT 55.764221 41.988499 35,000 86 452 0
2020-03-26 13:15:12 GMT 55.763306 41.961117 35,000 86 452 0
2020-03-26 13:15:09 GMT 55.763016 41.951294 35,000 86 452 0
2020-03-26 13:15:00 GMT 55.761902 41.917992 35,000 86 452 0
2020-03-26 13:14:51 GMT 55.760834 41.884876 35,000 86 452 0
2020-03-26 13:14:47 GMT 55.760330 41.869312 35,000 86 453 64
2020-03-26 13:14:42 GMT 55.759781 41.852669 35,000 86 453 64
2020-03-26 13:14:39 GMT 55.759293 41.838081 35,000 86 453 64
2020-03-26 13:14:35 GMT 55.758919 41.826584 35,000 86 453 0
2020-03-26 13:14:32 GMT 55.758408 41.811550 35,000 86 453 0
2020-03-26 13:14:29 GMT 55.758179 41.804562 35,000 86 453 0
2020-03-26 13:14:19 GMT 55.756592 41.756115 35,000 86 453 0
2020-03-26 13:14:09 GMT 55.755756 41.730194 35,000 86 453 -64
2020-03-26 13:14:06 GMT 55.755386 41.719250 35,000 86 453 -64
2020-03-26 13:14:00 GMT 55.754608 41.696278 35,000 86 453 0
2020-03-26 13:13:57 GMT 55.754379 41.688869 35,000 86 453 0
2020-03-26 13:13:49 GMT 55.752777 41.641617 35,000 86 453 0
2020-03-26 13:13:46 GMT 55.752777 41.641617 35,000 86 453 0
2020-03-26 13:13:39 GMT 55.752029 41.619732 35,000 86 453 0
2020-03-26 13:13:35 GMT 55.751587 41.606556 35,000 86 453 0
2020-03-26 13:13:30 GMT 55.750961 41.587543 35,000 86 453 0
2020-03-26 13:13:25 GMT 55.750309 41.569347 35,000 86 453 0
2020-03-26 13:13:20 GMT 55.749573 41.548378 35,000 86 453 0
2020-03-26 13:13:17 GMT 55.749115 41.534645 35,000 86 453 0
2020-03-26 13:13:10 GMT 55.747925 41.501354 35,000 86 453 0
2020-03-26 13:13:03 GMT 55.747421 41.486874 35,000 86 453 0
2020-03-26 13:12:58 GMT 55.746769 41.468155 35,000 86 453 0
2020-03-26 13:12:55 GMT 55.746368 41.456825 35,000 86 453 0
2020-03-26 13:12:48 GMT 55.745453 41.431274 35,000 86 453 0
2020-03-26 13:12:45 GMT 55.745049 41.420689 35,000 86 453 0
2020-03-26 13:12:42 GMT 55.744629 41.409054 35,000 86 453 0
2020-03-26 13:12:38 GMT 55.743977 41.389961 35,000 86 453 0
2020-03-26 13:12:34 GMT 55.743420 41.375542 35,000 86 453 0
2020-03-26 13:12:28 GMT 55.742661 41.354538 35,000 86 453 0
2020-03-26 13:12:23 GMT 55.742065 41.337559 35,000 86 453 0
2020-03-26 13:12:20 GMT 55.741608 41.325321 35,000 86 452 0
2020-03-26 13:12:12 GMT 55.740555 41.295776 35,000 86 452 0
2020-03-26 13:12:08 GMT 55.739868 41.276550 35,000 86 452 0
2020-03-26 13:12:01 GMT 55.739182 41.257870 35,000 86 452 0
2020-03-26 13:11:57 GMT 55.738495 41.240013 35,000 86 452 0
2020-03-26 13:11:52 GMT 55.737785 41.220963 35,000 86 451 0
2020-03-26 13:11:46 GMT 55.737087 41.202850 35,000 86 451 0
2020-03-26 13:11:38 GMT 55.735924 41.171520 35,000 86 451 0
2020-03-26 13:11:35 GMT 55.735336 41.155869 35,000 86 451 0
2020-03-26 13:11:30 GMT 55.734879 41.144798 35,000 86 452 0
2020-03-26 13:11:26 GMT 55.734016 41.122169 35,000 86 452 0
2020-03-26 13:11:23 GMT 55.733871 41.118248 35,000 86 452 0
2020-03-26 13:11:20 GMT 55.733410 41.106293 35,000 86 452 0
2020-03-26 13:11:17 GMT 55.732956 41.094692 35,000 86 452 0
2020-03-26 13:11:14 GMT 55.732525 41.083801 35,000 86 452 -64
2020-03-26 13:11:08 GMT 55.731537 41.058239 35,000 86 451 0
2020-03-26 13:11:04 GMT 55.731083 41.045864 35,000 86 451 0
2020-03-26 13:11:00 GMT 55.730431 41.028957 35,000 86 451 0
2020-03-26 13:10:56 GMT 55.729935 41.016293 35,000 86 451 0
2020-03-26 13:10:52 GMT 55.729340 41.001560 35,000 86 451 0
2020-03-26 13:10:48 GMT 55.728893 40.990417 35,000 86 451 0
2020-03-26 13:10:45 GMT 55.728428 40.977886 35,000 85 450 0
2020-03-26 13:10:42 GMT 55.727776 40.961323 35,000 85 450 0
2020-03-26 13:10:39 GMT 55.726707 40.935658 35,000 85 450 0
2020-03-26 13:10:35 GMT 55.726707 40.935658 35,000 85 450 0
2020-03-26 13:10:32 GMT 55.726410 40.928150 35,000 85 450 0
2020-03-26 13:10:28 GMT 55.725815 40.913418 35,000 85 450 0
2020-03-26 13:10:25 GMT 55.725449 40.903931 35,000 85 450 0
2020-03-26 13:10:20 GMT 55.724716 40.885620 35,000 85 450 0
2020-03-26 13:10:17 GMT 55.724075 40.870556 35,000 85 450 0
2020-03-26 13:10:14 GMT 55.723846 40.864647 35,000 85 450 0
2020-03-26 13:10:07 GMT 55.722748 40.837929 35,000 85 450 0
2020-03-26 13:10:04 GMT 55.722290 40.826527 35,000 85 450 0
2020-03-26 13:10:00 GMT 55.721695 40.812210 35,000 85 450 0
2020-03-26 13:09:56 GMT 55.721027 40.796616 35,000 85 450 0
2020-03-26 13:09:53 GMT 55.720467 40.782707 35,000 85 450 0
2020-03-26 13:09:47 GMT 55.719536 40.760391 35,000 85 450 0
2020-03-26 13:09:44 GMT 55.719166 40.750439 35,000 85 450 0
2020-03-26 13:09:33 GMT 55.717583 40.712242 35,000 85 450 0
2020-03-26 13:09:30 GMT 55.717117 40.701687 35,000 85 450 0
2020-03-26 13:09:24 GMT 55.716091 40.677135 35,000 85 450 0
2020-03-26 13:09:20 GMT 55.715626 40.666065 35,000 85 450 0
2020-03-26 13:09:14 GMT 55.714691 40.643173 35,000 85 450 0
2020-03-26 13:09:11 GMT 55.714184 40.631218 35,000 85 450 0
2020-03-26 13:09:05 GMT 55.713112 40.606670 35,000 85 450 0
2020-03-26 13:09:02 GMT 55.712585 40.594398 35,000 85 450 0
2020-03-26 13:08:51 GMT 55.710800 40.552616 35,000 85 449 0
2020-03-26 13:08:44 GMT 55.709854 40.530884 35,000 85 449 0
2020-03-26 13:08:40 GMT 55.709244 40.515999 35,000 85 449 0
2020-03-26 13:08:33 GMT 55.708179 40.492432 35,000 85 449 0
2020-03-26 13:08:30 GMT 55.707642 40.479794 35,000 85 449 0
2020-03-26 13:08:23 GMT 55.706505 40.453979 35,000 85 449 0
2020-03-26 13:08:19 GMT 55.705990 40.442989 35,000 85 449 0
2020-03-26 13:08:12 GMT 55.704781 40.415268 35,000 85 448 0
2020-03-26 13:08:09 GMT 55.704269 40.403938 35,000 85 448 64
2020-03-26 13:08:02 GMT 55.703110 40.377419 35,000 85 448 0
2020-03-26 13:07:59 GMT 55.702686 40.367718 35,000 85 448 0
2020-03-26 13:07:54 GMT 55.701756 40.346947 35,000 85 448 0
2020-03-26 13:07:48 GMT 55.700867 40.326649 35,000 85 448 0
2020-03-26 13:07:41 GMT 55.699677 40.300014 35,000 85 448 0
2020-03-26 13:07:38 GMT 55.699333 40.292530 35,000 85 448 0
2020-03-26 13:07:33 GMT 55.698486 40.273716 35,000 85 448 0
2020-03-26 13:07:29 GMT 55.697708 40.256153 35,000 85 448 -64
2020-03-26 13:07:20 GMT 55.696198 40.223694 35,000 85 448 0
2020-03-26 13:07:17 GMT 55.695889 40.216999 35,000 85 447 0
2020-03-26 13:07:12 GMT 55.695053 40.198227 35,000 85 447 0
2020-03-26 13:07:08 GMT 55.694260 40.181553 35,000 85 447 0
2020-03-26 13:07:03 GMT 55.693359 40.162106 35,000 85 447 0
2020-03-26 13:06:58 GMT 55.692631 40.145500 35,000 85 447 0
2020-03-26 13:06:52 GMT 55.691605 40.124043 35,000 85 447 0
2020-03-26 13:06:48 GMT 55.690861 40.107651 35,000 85 447 0
2020-03-26 13:06:41 GMT 55.689838 40.085766 35,000 85 447 0
2020-03-26 13:06:36 GMT 55.688999 40.067909 35,000 85 447 0
2020-03-26 13:06:32 GMT 55.688141 40.049576 35,000 85 447 0
2020-03-26 13:06:27 GMT 55.687279 40.031178 35,000 85 447 0
2020-03-26 13:06:21 GMT 55.685532 39.993149 35,000 85 447 0
2020-03-26 13:06:16 GMT 55.685532 39.993149 35,000 85 447 0
2020-03-26 13:06:10 GMT 55.684616 39.973503 35,000 85 447 0
2020-03-26 13:06:06 GMT 55.683739 39.954445 35,000 85 447 0
2020-03-26 13:06:00 GMT 55.682877 39.936050 35,000 85 447 0
2020-03-26 13:05:55 GMT 55.681923 39.916161 35,000 85 447 0
2020-03-26 13:05:49 GMT 55.680992 39.896507 35,000 85 447 0
2020-03-26 13:05:45 GMT 55.680130 39.879208 35,000 85 447 0
2020-03-26 13:05:40 GMT 55.679176 39.859085 35,000 85 447 0
2020-03-26 13:05:34 GMT 55.678299 39.841419 35,000 85 447 0
2020-03-26 13:05:30 GMT 55.677593 39.826641 35,000 85 447 0
2020-03-26 13:05:26 GMT 55.676743 39.809792 35,000 85 447 0
2020-03-26 13:05:21 GMT 55.675453 39.783382 35,000 85 447 0
2020-03-26 13:05:13 GMT 55.674522 39.764843 35,000 85 447 0
2020-03-26 13:05:10 GMT 55.673904 39.752613 35,000 85 447 0
2020-03-26 13:05:05 GMT 55.673126 39.736633 35,000 85 447 0
2020-03-26 13:05:00 GMT 55.672119 39.716244 35,000 85 447 0
2020-03-26 13:04:57 GMT 55.671616 39.706837 35,000 85 447 0
2020-03-26 13:04:53 GMT 55.670658 39.687424 35,000 85 447 0
2020-03-26 13:04:48 GMT 55.669739 39.668636 35,000 85 447 0
2020-03-26 13:04:45 GMT 55.669327 39.660645 35,000 84 447 0
2020-03-26 13:04:40 GMT 55.668331 39.640472 35,000 85 447 64
2020-03-26 13:04:37 GMT 55.667912 39.632065 35,000 85 447 64
2020-03-26 13:04:32 GMT 55.666885 39.611378 34,975 85 447 128
2020-03-26 13:04:29 GMT 55.666534 39.604965 34,975 85 447 128
2020-03-26 13:04:24 GMT 55.665489 39.584000 34,950 85 448 256
2020-03-26 13:04:19 GMT 55.664700 39.567604 34,950 85 448 128
2020-03-26 13:04:14 GMT 55.662827 39.529892 34,925 84 450 896
2020-03-26 13:04:09 GMT 55.662827 39.529892 34,900 85 447 576
2020-03-26 13:04:04 GMT 55.661957 39.512413 34,775 84 450 896
2020-03-26 13:03:58 GMT 55.661022 39.493275 34,775 84 448 832
2020-03-26 13:03:54 GMT 55.660137 39.476192 34,475 84 450 896
2020-03-26 13:03:49 GMT 55.659111 39.456108 34,625 84 449 832
2020-03-26 13:03:44 GMT 55.658134 39.436710 34,550 84 449 832
2020-03-26 13:03:38 GMT 55.657204 39.418087 34,475 84 449 896
2020-03-26 13:03:32 GMT 55.656086 39.395428 34,375 84 450 896
2020-03-26 13:03:28 GMT 55.655342 39.380753 34,350 84 450 896
2020-03-26 13:03:22 GMT 55.654221 39.358936 34,225 84 451 960
2020-03-26 13:03:18 GMT 55.651794 39.311165 34,150 84 451 960
2020-03-26 13:03:12 GMT 55.651794 39.311165 34,100 84 450 832
2020-03-26 13:03:07 GMT 55.651432 39.303677 34,000 84 450 832
2020-03-26 13:03:02 GMT 55.650547 39.286163 33,925 84 449 896
2020-03-26 13:02:59 GMT 55.649506 39.266220 33,825 84 448 1152
2020-03-26 13:02:50 GMT 55.647800 39.234409 33,575 84 447 1856
2020-03-26 13:02:47 GMT 55.647537 39.228764 33,525 84 447 1856
2020-03-26 13:02:42 GMT 55.646824 39.215096 33,400 84 448 1920
2020-03-26 13:02:37 GMT 55.645706 39.194324 33,250 84 448 2048
2020-03-26 13:02:33 GMT 55.644821 39.177589 33,050 84 449 2240
2020-03-26 13:02:28 GMT 55.643417 39.151859 32,850 84 450 1984
2020-03-26 13:02:22 GMT 55.642632 39.137764 32,675 84 450 2048
2020-03-26 13:02:15 GMT 55.641331 39.113647 32,450 84 451 2176
2020-03-26 13:02:11 GMT 55.640488 39.098843 32,275 83 456 2240
2020-03-26 13:02:05 GMT 55.638351 39.060860 32,000 84 452 2112
2020-03-26 13:02:01 GMT 55.638351 39.060860 31,925 84 452 2112
2020-03-26 13:01:56 GMT 55.637466 39.045498 31,725 84 453 2176
2020-03-26 13:01:53 GMT 55.636551 39.029099 31,625 84 453 2176
2020-03-26 13:01:50 GMT 55.635681 39.014450 31,475 84 453 2176
2020-03-26 13:01:46 GMT 55.635139 39.004726 31,375 84 453 2240
2020-03-26 13:01:42 GMT 55.634159 38.988075 31,200 84 454 2240
2020-03-26 13:01:39 GMT 55.633648 38.979321 31,125 84 454 2240
2020-03-26 13:01:35 GMT 55.632935 38.966923 30,825 83 455 2368
2020-03-26 13:01:31 GMT 55.632252 38.955288 30,250 83 455 2304
2020-03-26 13:01:28 GMT 55.631195 38.937046 30,675 83 455 2368
2020-03-26 13:01:24 GMT 55.630016 38.917606 30,525 83 455 2304
2020-03-26 13:01:21 GMT 55.630016 38.917606 30,475 83 456 2176
2020-03-26 13:01:14 GMT 55.628296 38.888428 30,225 83 455 1600
2020-03-26 13:01:11 GMT 55.627598 38.877010 30,150 83 454 1472
2020-03-26 13:01:04 GMT 55.626202 38.853748 29,975 83 453 1856
2020-03-26 13:01:01 GMT 55.625362 38.840530 29,850 83 452 1792
2020-03-26 13:00:54 GMT 55.623779 38.815365 29,650 83 451 1664
2020-03-26 13:00:51 GMT 55.622196 38.790321 29,525 83 450 1856
2020-03-26 13:00:48 GMT 55.622196 38.790321 29,450 83 450 1920
2020-03-26 13:00:43 GMT 55.621353 38.776993 29,175 86 450 1920
2020-03-26 13:00:40 GMT 55.620483 38.763512 29,225 84 451 1920
2020-03-26 13:00:36 GMT 55.619823 38.751614 29,150 85 450 1920
2020-03-26 13:00:33 GMT 55.619247 38.739040 29,000 86 449 1920
2020-03-26 13:00:30 GMT 55.618835 38.727390 28,900 87 450 1984
2020-03-26 13:00:27 GMT 55.618515 38.713821 28,775 90 450 2048
2020-03-26 13:00:23 GMT 55.618427 38.700886 28,650 90 449 2048
2020-03-26 13:00:20 GMT 55.618473 38.690674 28,550 91 449 2048
2020-03-26 13:00:14 GMT 55.618938 38.670242 28,375 95 448 1664
2020-03-26 13:00:10 GMT 55.619888 38.651981 28,225 97 448 2112
2020-03-26 13:00:04 GMT 55.621452 38.634193 28,025 101 448 2368
2020-03-26 13:00:01 GMT 55.622406 38.625099 27,825 105 448 2176
2020-03-26 12:59:58 GMT 55.623734 38.614967 27,825 105 448 2176
2020-03-26 12:59:55 GMT 55.625610 38.602879 27,700 107 447 2176
2020-03-26 12:59:52 GMT 55.628201 38.588531 27,500 110 446 2176
2020-03-26 12:59:49 GMT 55.629971 38.579693 27,450 111 445 2240
2020-03-26 12:59:44 GMT 55.633759 38.562679 27,250 112 444 2496
2020-03-26 12:59:41 GMT 55.635681 38.554272 27,100 112 444 2496
2020-03-26 12:59:38 GMT 55.638062 38.544201 27,025 112 444 2432
2020-03-26 12:59:34 GMT 55.643967 38.519150 26,850 112 443 2240
2020-03-26 12:59:31 GMT 55.643967 38.519150 26,725 112 442 1920
2020-03-26 12:59:28 GMT 55.646576 38.508163 26,650 112 441 1984
2020-03-26 12:59:22 GMT 55.650269 38.492317 26,475 112 441 2368
2020-03-26 12:59:19 GMT 55.653294 38.479359 26,225 112 439 2176
2020-03-26 12:59:13 GMT 55.658230 38.458500 26,100 112 439 1984
2020-03-26 12:59:10 GMT 55.660034 38.450649 26,000 112 438 1856
2020-03-26 12:59:07 GMT 55.662697 38.439186 25,425 112 436 2240
2020-03-26 12:59:03 GMT 55.665955 38.425369 25,775 112 436 2176
2020-03-26 12:59:00 GMT 55.670700 38.404793 25,425 112 433 2176
2020-03-26 12:58:56 GMT 55.670700 38.404793 24,675 111 429 2432
2020-03-26 12:58:53 GMT 55.673401 38.392887 25,375 112 433 2176
2020-03-26 12:58:50 GMT 55.678570 38.370438 25,225 111 432 2304
2020-03-26 12:58:46 GMT 55.678570 38.370438 25,125 111 432 2368
2020-03-26 12:58:42 GMT 55.681091 38.359512 25,000 111 432 2432
2020-03-26 12:58:39 GMT 55.684067 38.346363 24,825 111 431 2432
2020-03-26 12:58:35 GMT 55.687229 38.332500 24,675 111 429 2368
2020-03-26 12:58:32 GMT 55.688671 38.325977 24,275 111 428 2432
2020-03-26 12:58:28 GMT 55.691895 38.311825 24,350 111 428 2368
2020-03-26 12:58:25 GMT 55.694412 38.300423 24,275 111 428 2432
2020-03-26 12:58:22 GMT 55.696014 38.293262 24,200 112 428 2560
2020-03-26 12:58:17 GMT 55.699631 38.278198 24,025 113 427 2560
2020-03-26 12:58:14 GMT 55.702011 38.268627 23,675 117 426 2624
2020-03-26 12:58:11 GMT 55.703941 38.261173 23,500 117 426 2624
2020-03-26 12:58:06 GMT 55.708412 38.245296 23,375 122 424 2560
2020-03-26 12:58:02 GMT 55.713089 38.230259 23,325 121 425 2560
2020-03-26 12:57:59 GMT 55.719269 38.212612 23,150 123 424 2624
2020-03-26 12:57:56 GMT 55.719269 38.212612 23,075 124 423 2624
2020-03-26 12:57:51 GMT 55.728195 38.190193 22,400 126 420 2944
2020-03-26 12:57:44 GMT 55.732246 38.180492 22,525 126 421 2944
2020-03-26 12:57:41 GMT 55.735832 38.171909 22,425 126 421 2944
2020-03-26 12:57:38 GMT 55.739822 38.162342 22,200 126 420 2944
2020-03-26 12:57:35 GMT 55.743851 38.152687 22,025 126 420 2880
2020-03-26 12:57:31 GMT 55.748611 38.141369 21,850 126 419 2880
2020-03-26 12:57:28 GMT 55.750992 38.135544 21,725 126 419 2944
2020-03-26 12:57:24 GMT 55.755661 38.124359 21,600 126 419 2880
2020-03-26 12:57:20 GMT 55.759525 38.115349 21,300 127 418 2944
2020-03-26 12:57:15 GMT 55.766052 38.099918 20,925 126 415 3072
2020-03-26 12:57:12 GMT 55.770218 38.090099 20,900 126 416 3136
2020-03-26 12:57:06 GMT 55.776611 38.074924 20,600 126 415 3136
2020-03-26 12:57:03 GMT 55.780102 38.066769 20,450 126 415 3072
2020-03-26 12:57:00 GMT 55.782898 38.060055 20,325 126 415 3008
2020-03-26 12:56:57 GMT 55.788071 38.047817 20,100 126 413 2944
2020-03-26 12:56:53 GMT 55.792191 38.037998 19,900 126 413 2944
2020-03-26 12:56:49 GMT 55.795883 38.029263 19,775 126 411 2816
2020-03-26 12:56:46 GMT 55.799240 38.021187 19,625 126 411 2816
2020-03-26 12:56:42 GMT 55.804001 38.009865 19,425 126 409 2560
2020-03-26 12:56:39 GMT 55.809402 37.996964 19,225 126 408 2624
2020-03-26 12:56:35 GMT 55.816086 37.981236 18,950 126 405 3072
2020-03-26 12:56:32 GMT 55.816086 37.981236 18,925 126 405 3072
2020-03-26 12:56:27 GMT 55.821213 37.968918 18,700 126 403 2816
2020-03-26 12:56:23 GMT 55.825378 37.959095 18,550 126 401 1856
2020-03-26 12:56:20 GMT 55.828995 37.950356 18,450 126 396 1024
2020-03-26 12:56:17 GMT 55.832291 37.942532 18,425 126 393 704
2020-03-26 12:56:14 GMT 55.835129 37.935707 18,375 126 388 896
2020-03-26 12:56:11 GMT 55.838699 37.927303 18,350 126 384 896
2020-03-26 12:56:07 GMT 55.842899 37.917336 18,300 126 378 1024
2020-03-26 12:56:03 GMT 55.847443 37.906494 18,225 126 373 1024
2020-03-26 12:55:59 GMT 55.851013 37.897839 18,150 126 366 1024
2020-03-26 12:55:56 GMT 55.853607 37.891674 17,975 126 353 1408
2020-03-26 12:55:52 GMT 55.857697 37.882027 18,000 126 354 1280
2020-03-26 12:55:48 GMT 55.862137 37.871372 17,875 126 350 1472
2020-03-26 12:55:45 GMT 55.865105 37.864292 17,850 126 347 1600
2020-03-26 12:55:42 GMT 55.867805 37.857857 17,800 126 346 1728
2020-03-26 12:55:39 GMT 55.871529 37.849014 17,675 126 342 2176
2020-03-26 12:55:36 GMT 55.873535 37.844070 17,575 126 340 2688
2020-03-26 12:55:33 GMT 55.875961 37.838329 17,450 126 339 3264
2020-03-26 12:55:30 GMT 55.879307 37.830391 17,375 126 338 3712
2020-03-26 12:55:27 GMT 55.881351 37.825500 17,025 126 339 4288
2020-03-26 12:55:24 GMT 55.884979 37.816940 16,800 127 339 4352
2020-03-26 12:55:20 GMT 55.887871 37.810135 16,550 123 337 3904
2020-03-26 12:55:17 GMT 55.891781 37.800949 16,350 127 339 3264
2020-03-26 12:55:13 GMT 55.894993 37.793400 16,025 125 337 3584
2020-03-26 12:55:10 GMT 55.897598 37.787132 16,025 125 337 3584
2020-03-26 12:55:07 GMT 55.900906 37.778721 15,775 123 337 3904
2020-03-26 12:55:04 GMT 55.903976 37.770226 15,525 121 338 3840
2020-03-26 12:55:01 GMT 55.905933 37.764561 15,075 119 337 3776
2020-03-26 12:54:56 GMT 55.909145 37.754345 14,975 116 337 4160
2020-03-26 12:54:53 GMT 55.913612 37.738724 14,400 114 338 4544
2020-03-26 12:54:50 GMT 55.913612 37.738724 14,400 114 338 4544
2020-03-26 12:54:47 GMT 55.916245 37.728134 14,325 112 339 4480
2020-03-26 12:54:43 GMT 55.918030 37.720310 14,125 109 339 4288
2020-03-26 12:54:39 GMT 55.920044 37.710323 13,800 107 339 3328
2020-03-26 12:54:36 GMT 55.921295 37.703445 13,750 105 338 2816
2020-03-26 12:54:33 GMT 55.923016 37.692459 13,600 104 334 2048
2020-03-26 12:54:30 GMT 55.924133 37.684910 13,400 104 332 1728
2020-03-26 12:54:25 GMT 55.925949 37.672119 13,325 104 326 1408
2020-03-26 12:54:22 GMT 55.926910 37.665295 13,150 103 323 704
2020-03-26 12:54:19 GMT 55.928238 37.655888 13,175 100 320 640
2020-03-26 12:54:16 GMT 55.929382 37.647900 13,200 103 323 640
2020-03-26 12:54:12 GMT 55.930977 37.636669 13,125 102 322 640
2020-03-26 12:54:09 GMT 55.931862 37.630150 13,125 102 322 704
2020-03-26 12:54:04 GMT 55.933399 37.618046 13,075 101 321 640
2020-03-26 12:54:01 GMT 55.935150 37.600624 13,025 98 318 576
2020-03-26 12:53:57 GMT 55.935150 37.600624 12,775 91 315 704
2020-03-26 12:53:53 GMT 55.935539 37.587578 12,875 85 313 1152
2020-03-26 12:53:49 GMT 55.935165 37.577362 12,850 80 312 1792
2020-03-26 12:53:45 GMT 55.934517 37.569637 12,600 73 308 3008
2020-03-26 12:53:42 GMT 55.933319 37.560425 12,575 71 307 3136
2020-03-26 12:53:36 GMT 55.930206 37.545113 12,225 63 302 3456
2020-03-26 12:53:32 GMT 55.927780 37.536369 12,000 59 300 3776
2020-03-26 12:53:27 GMT 55.924438 37.526634 11,750 56 300 3968
2020-03-26 12:53:24 GMT 55.921692 37.519226 11,450 55 300 3584
2020-03-26 12:53:21 GMT 55.920090 37.515148 11,175 55 299 3200
2020-03-26 12:53:18 GMT 55.917709 37.508953 11,250 55 298 2944
2020-03-26 12:53:15 GMT 55.915054 37.501999 10,950 55 283 2432
2020-03-26 12:53:12 GMT 55.912262 37.494759 10,825 55 294 3392
2020-03-26 12:53:07 GMT 55.908783 37.485767 10,575 55 293 3648
2020-03-26 12:53:04 GMT 55.906586 37.480026 10,400 55 293 3456
2020-03-26 12:53:01 GMT 55.904251 37.474117 10,050 55 290 3008
2020-03-26 12:52:58 GMT 55.901505 37.467041 9,975 55 288 3072
2020-03-26 12:52:54 GMT 55.899216 37.461216 9,700 55 287 3456
2020-03-26 12:52:51 GMT 55.896469 37.454224 9,475 55 287 3264
2020-03-26 12:52:48 GMT 55.894089 37.448147 9,525 55 286 2880
2020-03-26 12:52:45 GMT 55.892349 37.443737 9,375 55 285 2688
2020-03-26 12:52:42 GMT 55.890152 37.438061 9,375 55 285 2688
2020-03-26 12:52:39 GMT 55.887772 37.432083 9,150 55 279 2752
2020-03-26 12:52:36 GMT 55.885822 37.426987 9,025 55 279 2752
2020-03-26 12:52:33 GMT 55.882797 37.419090 8,825 55 277 3584
2020-03-26 12:52:27 GMT 55.878700 37.408360 8,400 55 275 3392
2020-03-26 12:52:24 GMT 55.876602 37.402870 8,400 55 275 3392
2020-03-26 12:52:20 GMT 55.873581 37.394962 7,475 55 257 1088
2020-03-26 12:52:17 GMT 55.871811 37.390423 7,975 55 270 1984
2020-03-26 12:52:12 GMT 55.868179 37.380981 7,800 55 269 1664
2020-03-26 12:52:08 GMT 55.865295 37.373409 7,675 55 264 1472
2020-03-26 12:52:02 GMT 55.861267 37.362839 7,550 55 258 1024
2020-03-26 12:51:59 GMT 55.858932 37.356678 7,500 55 256 1152
2020-03-26 12:51:56 GMT 55.856773 37.351028 7,425 58 258 832
2020-03-26 12:51:53 GMT 55.855408 37.347439 7,350 57 257 960
2020-03-26 12:51:50 GMT 55.853420 37.342098 7,350 58 258 832
2020-03-26 12:51:46 GMT 55.851048 37.335236 7,275 63 261 960
2020-03-26 12:51:41 GMT 55.848438 37.325191 7,200 70 263 960
2020-03-26 12:51:36 GMT 55.846619 37.315147 7,125 80 266 960
2020-03-26 12:51:31 GMT 55.845428 37.304493 7,050 85 268 960
2020-03-26 12:51:26 GMT 55.845043 37.293777 6,975 94 271 960
2020-03-26 12:51:21 GMT 55.845413 37.281845 6,900 98 274 896
2020-03-26 12:51:15 GMT 55.846996 37.268112 6,500 130 275 1088
2020-03-26 12:51:11 GMT 55.849091 37.257885 6,725 113 278 896
2020-03-26 12:51:06 GMT 55.851654 37.248714 6,650 121 277 960
2020-03-26 12:51:00 GMT 55.854858 37.239906 6,575 129 275 1088
2020-03-26 12:50:54 GMT 55.859940 37.229256 6,150 160 272 1152
2020-03-26 12:50:49 GMT 55.864334 37.222095 6,400 141 276 1024
2020-03-26 12:50:45 GMT 55.868923 37.216270 6,200 162 273 1152
2020-03-26 12:50:40 GMT 55.874836 37.210609 6,225 158 273 1088
2020-03-26 12:50:36 GMT 55.880051 37.207260 6,125 167 271 1152
2020-03-26 12:50:33 GMT 55.883587 37.205627 6,025 185 268 1152
2020-03-26 12:50:28 GMT 55.888870 37.204453 6,000 179 270 1152
2020-03-26 12:50:25 GMT 55.894135 37.204533 5,925 189 267 1152
2020-03-26 12:50:19 GMT 55.902115 37.207947 5,775 205 262 1280
2020-03-26 12:50:14 GMT 55.905888 37.210865 5,725 211 259 1344
2020-03-26 12:50:07 GMT 55.912449 37.219021 5,550 226 247 1600
2020-03-26 12:50:04 GMT 55.914825 37.223396 5,475 233 238 1472
2020-03-26 12:49:57 GMT 55.919632 37.234913 4,875 239 228 3264
2020-03-26 12:49:54 GMT 55.921108 37.239101 5,025 240 228 3584
2020-03-26 12:49:51 GMT 55.923569 37.246483 4,750 240 228 3392
2020-03-26 12:49:47 GMT 55.924740 37.249920 4,500 241 224 1856
2020-03-26 12:49:43 GMT 55.926697 37.256012 4,475 241 227 2304
2020-03-26 12:49:40 GMT 55.928974 37.263050 4,350 241 222 1600
2020-03-26 12:49:37 GMT 55.929955 37.266052 4,175 241 216 1408
2020-03-26 12:49:33 GMT 55.932266 37.273365 4,175 241 210 1536
2020-03-26 12:49:27 GMT 55.934563 37.280815 4,050 241 205 1408
2020-03-26 12:49:23 GMT 55.936890 37.288029 3,950 241 195 1472
2020-03-26 12:49:18 GMT 55.939270 37.295589 3,825 241 180 896
2020-03-26 12:49:13 GMT 55.941147 37.301247 3,775 241 176 1088
2020-03-26 12:49:07 GMT 55.943390 37.308323 3,650 241 166 1344
2020-03-26 12:49:02 GMT 55.945358 37.314480 3,525 241 159 1920
2020-03-26 12:48:57 GMT 55.946915 37.319557 3,350 241 158 2560
2020-03-26 12:48:54 GMT 55.948200 37.323563 3,100 241 159 2432
2020-03-26 12:48:46 GMT 55.951088 37.332401 2,900 236 158 2112
2020-03-26 12:48:41 GMT 55.953228 37.337894 2,725 234 156 2304
2020-03-26 12:48:37 GMT 55.955017 37.342113 2,375 233 157 2816
2020-03-26 12:48:32 GMT 55.957260 37.347439 2,300 233 157 2688
2020-03-26 12:48:26 GMT 55.959793 37.353516 2,100 238 156 1792
2020-03-26 12:48:21 GMT 55.961750 37.359009 1,600 252 154 2368
2020-03-26 12:48:17 GMT 55.963005 37.363384 1,700 248 156 2624
2020-03-26 12:48:12 GMT 55.964539 37.369743 1,525 252 154 2304
2020-03-26 12:48:06 GMT 55.966450 37.382095 1,275 257 149 1984
2020-03-26 12:48:01 GMT 55.966450 37.382095 1,175 257 149 1984
2020-03-26 12:47:57 GMT 55.967289 37.388020 1,000 256 147 1856
2020-03-26 12:47:51 GMT 55.968266 37.394798 825 255 146 2176
2020-03-26 12:47:46 GMT 55.968979 37.399876 650 255 146 2112
2020-03-26 12:47:40 GMT 55.970032 37.406368 475 255 143 1792
2020-03-26 12:46:39 GMT 55.975330 37.441261 0 255 0
2020-03-26 12:46:25 GMT 55.975479 37.441833 0 199 10
2020-03-26 12:46:19 GMT 55.975704 37.441921 0 174 11
2020-03-26 12:42:59 GMT 55.979977 37.439949 0 165 11
2020-03-26 12:41:49 GMT 55.979576 37.432022 0 75 19
2020-03-26 12:41:37 GMT 55.979347 37.430443 0 75 16
2020-03-26 12:41:29 GMT 55.979206 37.429497 0 75 14
2020-03-26 12:41:17 GMT 55.979027 37.428318 0 75 9
2020-03-26 12:41:04 GMT 55.978832 37.427464 0 30 9
2020-03-26 12:41:01 GMT 55.978775 37.427395 0 16 9

Making use of Plane Finder data

You are free to use the raw flight data, aircraft information and images provided in this report for your own purposes provided the data is correctly attributed to Plane Finder. We ask that you please credit Plane Finder and link to planefinder.net in close proximity to the content.

Optionally one of the following logos (no smaller then 150x24px) can be used and must link to planefinder.net

Embedding the Plane Finder map

You are welcome to embed the Plane Finder playback map on your website to offer visitors a more interactive experience. We suggest using the following HTML code:

<iframe src="//planefinder.net/data/report/SU1404-VP-BMO-7700-squawk-2020-03-26/map" width="800" height="600" seamless="seamless"></iframe>

Where our data comes from

Plane Finder has a global network of data feeds and antenna radars that receive data broadcast directly from aircraft. The primary technologies used are ADS-B and MLAT. We also show feeds from the FAA and a FLARM glider feed.

Click here to find out more about the Plane Finder network.

How we collect our data